AirNav   Everest Fuels
 
 359 users online  

1MS4 Central Mississippi Medical Center Heliport
Jackson, Mississippi, USA

GOING TO JACKSON?


FAA INFORMATION EFFECTIVE 26 MARCH 2020

Location

FAA Identifier: 1MS4
Lat/Long: 32-17-13.3200N 090-15-11.9200W
32-17.222000N 090-15.198667W
32.2870333,-90.2533111
(estimated)
Elevation: 366 ft. / 112 m (estimated)
Variation: 03E (1985)
Time zone: UTC -5 (UTC -6 during Standard Time)
Zip code: 39204

Heliport Operations

Heliport use: Private use, MEDICAL.
Activation date: 06/1987
Control tower: no
ARTCC: MEMPHIS CENTER
FSS: GREENWOOD FLIGHT SERVICE STATION
Attendance: UNATNDD
Segmented circle: no

Heliport Communications

WX ASOS at HKS (3 nm NE): 120.625 (601-354-4037)
WX AWOS-3PT at JVW (8 nm W): 118.675 ((601) 857-3887)
WX ASOS at JAN (9 nm E): 121.05 (601-932-2822)
WX AWOS-3PT at MBO (12 nm NE): 119.125 (601-605-8137)

Nearby radio navigation aids

VOR radial/distance  VOR name  Freq  Var
MHZr222/11.8MAGNOLIA VORTAC113.2001W

 
NDB name  Hdg/Dist  Freq  Var  ID
BRENZ177/7.626000WJH .--- ....
ALLEN223/10.136501WJA .--- .-
TALLULAH084/39.334402ETKH - -.- ....

Heliport Services

Runway Information

Helipad H1

Dimensions: 120 x 80 ft. / 37 x 24 m
Surface: concrete
Latitude: 32-17.222000N
Longitude: 090-15.198667W
Elevation: 366.0 ft.
Traffic pattern: leftleft

Heliport Ownership and Management from official FAA records

Ownership: Publicly-owned
Owner: HEALTH MANAGEMENT ASSOCIATION
1850 CHADWICK DRIVE
JACKSON, MS 39204
Phone 601-376-1112
Manager: LISA DOLAN, CEO
1850 CHADWICK DRIVE
JACKSON, MS 39204
Phone 601-376-1112

Additional Remarks

FOR CD CTC JACKSON APCH AT 601-965-4625, WHEN APCH CLSD CTC MEMPHIS ARTCC AT 901-368-8453.

Instrument Procedures

There are no published instrument procedures at 1MS4.

Some nearby airports with instrument procedures:

KHKS - Hawkins Field Airport (3 nm NE)
KJVW - John Bell Williams Airport (8 nm W)
KJAN - Jackson-Medgar Wiley Evers International Airport (9 nm E)
KMBO - Bruce Campbell Field Airport (12 nm NE)
M11 - Copiah County Airport (24 nm S)
 
Loc | Ops | Rwys | IFR | FBO | Links
Com | Nav | Svcs | Stats | Notes
Area around 1MS4 (Central Mississippi Medical Center Heliport)
 
Road maps at: MapQuest Bing Google
 
Aerial photo
No photo
 
Sectional chart

 
Airport distance calculator
Flying to Central Mississippi Medical Center Heliport? Find the distance to fly.

From to 1MS4

Sunrise and sunset
Times for 30-Mar-2020
 Local
(UTC-5)
 Zulu
(UTC)
Morning civil twilight06:2711:27
Sunrise06:5211:52
Sunset19:1900:19
Evening civil twilight19:4400:44

Current date and time
Zulu (UTC)  30-Mar-2020 06:35:54
Local (UTC-5)  30-Mar-2020 01:35:54
 
METAR
KHKS 
3nm NE 
300553Z AUTO 00000KT 10SM CLR 16/13 A3017 RMK AO2 SLP211 T01560133 10200 20150 402330144 56007
KJVW 
8nm W 
300615Z AUTO 00000KT 10SM CLR 16/16 A3017 RMK AO2
KJAN 
9nm E 
300554Z AUTO 00000KT 10SM CLR 15/12 A3016 RMK AO2 SLP211 T01500122 10194 20139 402440139 58008
KMBO 
12nm NE 
300615Z AUTO 00000KT 10SM CLR 13/13 A3017 RMK AO2 PWINO
TAF
KHKS 
3nm NE 
300524Z 3006/3106 VRB02KT P6SM SCT100 BKN250 FM301400 08009KT P6SM BKN100 FM310100 07005KT P6SM VCSH OVC080 FM310300 09005KT 6SM SHRA OVC070
KJAN 
9nm E 
300524Z 3006/3106 VRB03KT P6SM SCT100 BKN250 FM301400 07010KT P6SM BKN100 FM310100 07005KT P6SM VCSH OVC080 FM310300 09005KT 6SM SHRA OVC070
NOTAMs
Click for the latest NOTAMs
NOTAMs are issued by the DoD/FAA and will open in a separate window not controlled by AirNav.

 

 
 

Would you like to see your business listed on this page?

 If your business provides an interesting product or service to pilots, flight crews, aircraft, or users of the Central Mississippi Medical Center Heliport, you should consider listing it here.  To start the listing process, click on the button below
 
Add a business
 

Other Pages about Central Mississippi Medical Center Heliport

Update a link
 
Copyright © AirNav, LLC. All rights reserved. Privacy Policy  Contact